Time;durP1;ratioP1;P1;durP2;ratioP2;P2;SDS_P1;SDS_P2;PMS_P1;PMS_P2;Temp;Humidity;BMP_temperature;BMP_pressure;BME280_temperature;BME280_humidity;BME280_pressure;Samples;Min_cycle;Max_cycle;Signal;HPM_P1;HPM_P2
2023/09/19 00:01:12;;;;;;;17.35;2.78;;;;;;;11.94;100.00;99055.66;5087100;28;20028;-87
2023/09/19 00:03:42;;;;;;;19.73;3.28;;;;;;;11.90;100.00;99052.56;5055656;28;20122;-87
2023/09/19 00:06:13;;;;;;;19.65;2.63;;;;;;;11.90;100.00;99049.91;5067593;28;20101;-86
2023/09/19 00:08:43;;;;;;;18.42;2.97;;;;;;;11.87;100.00;99043.16;5076344;28;20092;-84
2023/09/19 00:11:14;;;;;;;11.45;2.42;;;;;;;11.86;100.00;99035.41;5072443;27;20031;-85
2023/09/19 00:13:43;;;;;;;18.13;2.90;;;;;;;11.84;100.00;99030.31;5051574;28;20084;-85
2023/09/19 00:16:15;;;;;;;14.77;2.63;;;;;;;11.83;100.00;99028.69;5058310;28;20092;-85
2023/09/19 00:18:43;;;;;;;17.27;2.03;;;;;;;11.82;100.00;99023.56;5054074;28;20032;-84
2023/09/19 00:21:11;;;;;;;15.93;2.65;;;;;;;11.78;100.00;99018.63;5069272;28;20085;-84
2023/09/19 00:23:40;;;;;;;12.80;2.55;;;;;;;11.77;100.00;99011.69;5071113;28;20081;-85
2023/09/19 00:26:08;;;;;;;11.38;2.15;;;;;;;11.72;100.00;99005.34;5056466;28;20114;-83
2023/09/19 00:28:38;;;;;;;17.42;2.13;;;;;;;11.70;100.00;99002.88;5084352;28;20127;-87
2023/09/19 00:31:05;;;;;;;21.58;2.88;;;;;;;11.69;100.00;98995.13;5053524;28;20047;-84
2023/09/19 00:33:34;;;;;;;14.93;2.55;;;;;;;11.69;100.00;98989.84;5073456;28;20579;-85
2023/09/19 00:36:04;;;;;;;18.10;2.70;;;;;;;11.63;100.00;98976.34;5055421;28;20060;-85
2023/09/19 00:38:34;;;;;;;16.25;2.50;;;;;;;11.61;100.00;98972.25;5068270;28;20044;-84
2023/09/19 00:41:04;;;;;;;21.20;3.03;;;;;;;11.57;100.00;98968.31;5057505;28;20028;-83
2023/09/19 00:43:34;;;;;;;14.50;2.58;;;;;;;11.55;100.00;98955.28;5092791;28;20115;-81
2023/09/19 00:46:06;;;;;;;17.38;2.75;;;;;;;11.52;100.00;98947.72;5080895;28;20027;-83
2023/09/19 00:48:43;;;;;;;15.77;2.20;;;;;;;11.52;100.00;98951.19;5086621;28;20028;-82
2023/09/19 00:51:13;;;;;;;13.60;2.78;;;;;;;11.50;100.00;98942.63;5091347;28;20036;-84
2023/09/19 00:53:46;;;;;;;11.88;2.58;;;;;;;11.46;100.00;98932.59;5056643;28;20746;-84
2023/09/19 00:56:18;;;;;;;13.43;2.03;;;;;;;11.47;100.00;98929.75;5057628;28;20035;-86
2023/09/19 00:58:48;;;;;;;11.98;1.83;;;;;;;11.48;100.00;98922.66;5075163;28;20153;-84
2023/09/19 01:01:18;;;;;;;16.33;2.30;;;;;;;11.48;100.00;98926.09;5074760;28;20118;-83
2023/09/19 01:03:46;;;;;;;14.65;2.55;;;;;;;11.45;100.00;98917.75;5054487;28;20515;-83
2023/09/19 01:06:14;;;;;;;11.00;2.00;;;;;;;11.49;100.00;98903.94;5063593;28;20031;-82
2023/09/19 01:08:42;;;;;;;10.75;2.30;;;;;;;11.48;100.00;98904.94;5051644;28;20101;-83
2023/09/19 01:11:32;;;;;;;15.85;1.90;;;;;;;11.57;100.00;98902.16;5060163;28;20035;-82
2023/09/19 01:14:20;;;;;;;16.10;2.40;;;;;;;11.60;100.00;98901.78;5055575;27;20038;-83
2023/09/19 01:17:08;;;;;;;17.67;2.95;;;;;;;11.61;100.00;98880.44;5091316;27;20093;-86
2023/09/19 01:20:14;;;;;;;18.23;2.42;;;;;;;11.61;100.00;98880.44;5079136;27;20126;-83
2023/09/19 01:23:12;;;;;;;15.10;2.55;;;;;;;11.66;100.00;98890.44;5053500;28;20093;-84
2023/09/19 01:26:16;;;;;;;17.13;3.03;;;;;;;11.71;100.00;98877.47;5058636;28;20035;-84
2023/09/19 01:29:29;;;;;;;11.60;2.10;;;;;;;11.75;100.00;98865.47;5076509;28;20471;-83
2023/09/19 01:32:04;;;;;;;13.98;1.95;;;;;;;11.77;100.00;98860.81;5076309;28;20032;-86
2023/09/19 01:34:48;;;;;;;10.07;2.08;;;;;;;11.79;100.00;98850.03;5057446;28;20089;-84
2023/09/19 01:37:20;;;;;;;20.60;2.95;;;;;;;11.78;100.00;98840.47;5080049;28;20118;-84
2023/09/19 01:39:52;;;;;;;17.92;2.58;;;;;;;11.80;100.00;98835.81;5077766;27;20031;-84
2023/09/19 01:42:35;;;;;;;14.95;2.33;;;;;;;11.86;100.00;98835.03;5072988;28;20024;-84
2023/09/19 01:45:12;;;;;;;24.08;3.08;;;;;;;11.86;100.00;98827.09;5076521;28;20059;-84
2023/09/19 01:47:48;;;;;;;;;;;;;;;11.84;100.00;98815.88;5078829;28;20028;-83
2023/09/19 01:50:28;;;;;;;17.80;3.00;;;;;;;11.90;100.00;98812.44;5075945;28;20005;-83
2023/09/19 01:53:05;;;;;;;15.48;3.13;;;;;;;11.91;100.00;98806.13;5076608;28;20032;-86
2023/09/19 01:55:38;;;;;;;14.27;2.45;;;;;;;11.94;100.00;98789.06;5061507;28;20040;-86
2023/09/19 01:58:20;;;;;;;21.55;2.90;;;;;;;11.97;100.00;98796.63;5056009;28;20024;-84
2023/09/19 02:00:53;;;;;;;15.32;3.22;;;;;;;11.99;100.00;98785.84;5076506;28;20067;-84
2023/09/19 02:03:25;;;;;;;17.40;3.42;;;;;;;12.03;100.00;98774.66;5074417;28;20031;-85
2023/09/19 02:05:54;;;;;;;17.23;2.92;;;;;;;12.05;100.00;98774.44;5048611;28;20036;-83
2023/09/19 02:08:25;;;;;;;16.35;2.83;;;;;;;12.11;100.00;98764.94;5060723;28;20037;-85
2023/09/19 02:10:54;;;;;;;15.40;3.30;;;;;;;12.12;100.00;98761.28;5053439;28;20036;-83
2023/09/19 02:13:27;;;;;;;13.63;3.00;;;;;;;12.18;100.00;98754.38;5052356;28;20115;-84
2023/09/19 02:15:56;;;;;;;15.13;3.42;;;;;;;12.19;100.00;98745.41;5045603;28;20032;-83
2023/09/19 02:18:23;;;;;;;12.65;2.85;;;;;;;12.23;100.00;98734.22;5049249;28;20077;-86
2023/09/19 02:20:54;;;;;;;12.43;2.70;;;;;;;12.24;100.00;98722.63;5058800;28;20031;-83
2023/09/19 02:23:22;;;;;;;16.55;3.20;;;;;;;12.26;100.00;98714.47;5093362;28;20047;-78
2023/09/19 02:26:04;;;;;;;9.45;2.53;;;;;;;12.28;100.00;98705.31;5107294;28;20032;-78
2023/09/19 02:28:32;;;;;;;11.73;2.72;;;;;;;12.29;100.00;98692.88;5073625;28;20043;-79
2023/09/19 02:31:00;;;;;;;15.35;2.53;;;;;;;12.28;100.00;98683.28;5058323;28;20048;-79
2023/09/19 02:33:32;;;;;;;15.23;3.42;;;;;;;12.30;100.00;98681.25;5084996;28;20505;-78
2023/09/19 02:36:03;;;;;;;13.25;2.85;;;;;;;12.26;100.00;98666.78;5062154;28;20040;-80
2023/09/19 02:38:31;;;;;;;18.42;3.20;;;;;;;12.31;100.00;98658.25;5074293;28;20078;-79
2023/09/19 02:40:59;;;;;;;14.90;2.63;;;;;;;12.30;100.00;98638.06;5090682;28;20027;-80
2023/09/19 02:43:27;;;;;;;15.60;2.88;;;;;;;12.34;100.00;98623.41;5074903;28;20032;-80
2023/09/19 02:45:57;;;;;;;12.15;2.90;;;;;;;12.32;100.00;98618.31;5085327;28;20027;-83
2023/09/19 02:48:25;;;;;;;13.98;2.63;;;;;;;12.34;100.00;98621.56;5059041;28;20028;-78
2023/09/19 02:50:54;;;;;;;10.20;2.40;;;;;;;12.33;100.00;98612.00;5067294;28;20032;-81
2023/09/19 02:53:22;;;;;;;10.38;2.33;;;;;;;12.35;100.00;98601.19;5060207;27;20027;-80
2023/09/19 02:55:52;;;;;;;7.28;1.90;;;;;;;12.38;100.00;98587.53;5102608;27;20055;-76
2023/09/19 02:58:20;;;;;;;6.38;1.60;;;;;;;12.41;100.00;98581.84;5088447;28;20034;-79
2023/09/19 03:00:49;;;;;;;11.48;2.88;;;;;;;12.42;100.00;98569.41;5081619;27;20035;-80
2023/09/19 03:03:17;;;;;;;8.93;1.83;;;;;;;12.45;100.00;98556.59;5066506;28;20124;-80
2023/09/19 03:05:47;;;;;;;8.43;1.90;;;;;;;12.45;100.00;98555.75;5060563;28;20035;-77
2023/09/19 03:08:15;;;;;;;10.95;2.28;;;;;;;12.50;100.00;98554.13;5053130;28;20039;-78
2023/09/19 03:10:44;;;;;;;6.55;2.13;;;;;;;12.52;100.00;98549.44;5101934;28;20090;-78
2023/09/19 03:13:12;;;;;;;6.97;1.83;;;;;;;12.58;100.00;98536.41;5087914;28;20024;-78
2023/09/19 03:15:46;;;;;;;10.82;2.03;;;;;;;12.62;100.00;98534.94;5072076;28;20024;-78
2023/09/19 03:18:16;;;;;;;6.22;1.70;;;;;;;12.65;100.00;98523.94;5075839;27;20035;-79
2023/09/19 03:20:44;;;;;;;13.20;2.35;;;;;;;12.65;100.00;98526.59;5070945;27;20037;-78
2023/09/19 03:23:13;;;;;;;8.63;1.67;;;;;;;12.71;100.00;98520.47;5048845;28;20075;-79
2023/09/19 03:25:40;;;;;;;8.80;2.05;;;;;;;12.77;100.00;98519.63;5054395;28;20087;-78
2023/09/19 03:28:09;;;;;;;8.05;2.28;;;;;;;12.82;100.00;98507.63;5045949;28;20040;-79
2023/09/19 03:30:38;;;;;;;9.65;1.85;;;;;;;12.86;100.00;98495.56;5035672;28;20368;-78
2023/09/19 03:33:06;;;;;;;7.47;1.70;;;;;;;12.93;100.00;98506.97;5039166;28;20040;-80
2023/09/19 03:35:36;;;;;;;4.72;1.60;;;;;;;12.97;100.00;98494.09;5045523;28;20081;-81
2023/09/19 03:38:05;;;;;;;5.13;1.60;;;;;;;13.03;100.00;98486.13;5067942;28;20032;-78
2023/09/19 03:40:33;;;;;;;7.22;1.25;;;;;;;13.09;100.00;98484.47;5059524;28;20024;-78
2023/09/19 03:43:04;;;;;;;3.33;1.33;;;;;;;13.19;100.00;98476.06;5054076;28;20028;-79
2023/09/19 03:45:32;;;;;;;4.30;1.20;;;;;;;13.19;100.00;98475.25;5053537;28;20070;-80
2023/09/19 03:48:09;;;;;;;5.88;1.30;;;;;;;13.26;100.00;98463.63;5053519;28;20043;-79
2023/09/19 03:50:40;;;;;;;4.07;0.82;;;;;;;13.33;100.00;98462.78;5038353;28;20032;-77
2023/09/19 03:53:09;;;;;;;5.32;1.48;;;;;;;13.35;100.00;98450.09;5056725;28;20422;-79
2023/09/19 03:55:41;;;;;;;3.67;0.95;;;;;;;13.40;100.00;98455.56;5060207;28;20372;-81
2023/09/19 03:58:08;;;;;;;5.13;1.00;;;;;;;13.40;100.00;98451.09;5075218;28;20074;-80
2023/09/19 04:00:37;;;;;;;2.63;0.52;;;;;;;13.51;100.00;98448.81;5064574;28;20532;-79
2023/09/19 04:03:06;;;;;;;5.03;0.70;;;;;;;13.55;100.00;98422.66;5049402;28;20028;-80
2023/09/19 04:05:35;;;;;;;5.50;0.50;;;;;;;13.57;100.00;98426.72;5052873;28;20623;-79
2023/09/19 04:08:02;;;;;;;2.38;0.60;;;;;;;13.59;100.00;98429.16;5055218;28;20483;-78
2023/09/19 04:10:31;;;;;;;5.30;0.70;;;;;;;13.63;100.00;98415.25;5036704;28;20086;-78
2023/09/19 04:12:59;;;;;;;2.38;0.50;;;;;;;13.67;100.00;98414.81;5062137;28;20090;-79
2023/09/19 04:15:27;;;;;;;1.70;0.45;;;;;;;13.75;100.00;98403.94;5037127;28;20550;-78
2023/09/19 04:17:55;;;;;;;4.72;0.57;;;;;;;13.78;100.00;98408.81;5063456;28;20028;-78
2023/09/19 04:20:23;;;;;;;2.55;0.60;;;;;;;13.83;100.00;98400.19;5047296;28;20046;-79
2023/09/19 04:22:50;;;;;;;3.85;0.60;;;;;;;13.84;100.00;98401.84;5078438;28;20054;-80
2023/09/19 04:25:20;;;;;;;0.30;0.20;;;;;;;13.89;100.00;98402.81;5074753;28;20050;-80
2023/09/19 04:27:49;;;;;;;2.17;0.52;;;;;;;13.94;100.00;98394.19;5071186;28;20082;-79
2023/09/19 04:30:17;;;;;;;1.63;0.40;;;;;;;13.97;100.00;98387.63;5054932;28;20495;-80
2023/09/19 04:32:50;;;;;;;1.98;0.20;;;;;;;14.02;100.00;98390.44;5048704;28;20043;-80
2023/09/19 04:35:20;;;;;;;1.92;0.30;;;;;;;14.09;100.00;98387.72;5051006;28;20510;-79
2023/09/19 04:37:52;;;;;;;0.30;0.10;;;;;;;14.12;100.00;98382.81;5070416;28;20463;-80
2023/09/19 04:40:22;;;;;;;2.13;0.35;;;;;;;14.14;100.00;98391.34;5076739;28;20502;-79
2023/09/19 04:42:58;;;;;;;1.90;0.20;;;;;;;14.22;100.00;98382.28;5061034;28;20055;-80
2023/09/19 04:45:27;;;;;;;0.65;0.13;;;;;;;14.20;100.00;98371.09;5094769;28;20028;-79
2023/09/19 04:47:57;;;;;;;0.77;0.10;;;;;;;14.26;100.00;98374.69;5076576;28;20361;-80
2023/09/19 04:50:27;;;;;;;2.25;0.20;;;;;;;14.29;100.00;98363.63;5075417;28;20082;-79
2023/09/19 04:52:55;;;;;;;0.00;0.00;;;;;;;14.30;100.00;98357.25;5038390;28;20488;-78
2023/09/19 04:55:23;;;;;;;1.20;0.10;;;;;;;14.31;100.00;98364.22;5043381;28;20027;-79
2023/09/19 04:57:52;;;;;;;0.13;0.05;;;;;;;14.33;100.00;98364.81;5049106;28;20123;-79
2023/09/19 05:00:27;;;;;;;0.03;0.03;;;;;;;14.37;100.00;98367.84;5074311;28;20055;-76
2023/09/19 05:02:56;;;;;;;0.57;0.10;;;;;;;14.39;100.00;98369.25;5057485;28;20035;-79
2023/09/19 05:05:26;;;;;;;1.25;0.10;;;;;;;14.39;100.00;98361.28;5071266;28;20541;-79
2023/09/19 05:07:54;;;;;;;0.05;0.05;;;;;;;14.42;100.00;98368.00;5057012;28;20032;-78
2023/09/19 05:10:21;;;;;;;0.35;0.00;;;;;;;14.48;100.00;98369.75;5073051;28;20056;-78
2023/09/19 05:12:51;;;;;;;0.57;0.08;;;;;;;14.47;100.00;98370.81;5067036;28;20051;-77
2023/09/19 05:15:21;;;;;;;0.20;0.00;;;;;;;14.50;100.00;98366.88;5056374;28;20649;-79
2023/09/19 05:17:51;;;;;;;0.20;0.10;;;;;;;14.51;100.00;98360.53;5052988;28;20116;-79
2023/09/19 05:20:29;;;;;;;0.65;0.00;;;;;;;14.56;100.00;98358.03;5092167;28;20042;-80
2023/09/19 05:23:08;;;;;;;0.00;0.00;;;;;;;14.60;100.00;98369.84;5057080;28;20035;-79
2023/09/19 05:25:40;;;;;;;1.75;0.00;;;;;;;14.62;100.00;98374.94;5071100;28;20395;-79
2023/09/19 05:28:15;;;;;;;0.00;0.00;;;;;;;14.63;100.00;98369.41;5055312;28;20083;-79
2023/09/19 05:30:44;;;;;;;0.00;0.00;;;;;;;14.65;100.00;98358.53;5040142;28;20043;-79
2023/09/19 05:33:13;;;;;;;0.00;0.00;;;;;;;14.66;100.00;98364.66;5091457;28;20984;-78
2023/09/19 05:35:41;;;;;;;0.08;0.00;;;;;;;14.68;100.00;98368.72;5070593;28;20040;-79
2023/09/19 05:38:11;;;;;;;0.03;0.00;;;;;;;14.71;100.00;98357.66;5089791;28;20095;-80
2023/09/19 05:40:42;;;;;;;0.00;0.00;;;;;;;14.70;100.00;98363.19;5056890;28;20093;-78
2023/09/19 05:43:09;;;;;;;0.30;0.00;;;;;;;14.76;100.00;98376.38;5063107;28;20028;-79
2023/09/19 05:45:37;;;;;;;0.00;0.00;;;;;;;14.76;100.00;98364.97;5071732;28;20036;-81
2023/09/19 05:48:13;;;;;;;0.45;0.00;;;;;;;14.85;100.00;98358.31;5058435;28;20549;-79
2023/09/19 05:50:41;;;;;;;;;;;;;;;14.80;100.00;98374.13;5081418;28;20656;-79
2023/09/19 05:53:14;;;;;;;0.68;0.00;;;;;;;14.88;100.00;98368.50;5068258;28;20010;-81
2023/09/19 05:55:42;;;;;;;1.85;0.00;;;;;;;14.90;100.00;98367.47;5052966;28;20038;-79
2023/09/19 05:58:10;;;;;;;0.00;0.00;;;;;;;14.96;100.00;98362.06;5072647;28;20035;-78
2023/09/19 06:00:38;;;;;;;0.00;0.00;;;;;;;14.98;100.00;98362.66;5059205;28;20090;-81
2023/09/19 06:03:07;;;;;;;0.65;0.10;;;;;;;15.07;100.00;98367.66;5059426;28;20032;-79
2023/09/19 06:05:35;;;;;;;2.10;0.10;;;;;;;15.12;100.00;98373.94;5064769;28;20093;-77
2023/09/19 06:08:07;;;;;;;0.70;0.00;;;;;;;15.22;100.00;98365.41;5054379;28;20024;-80
2023/09/19 06:10:35;;;;;;;0.75;0.00;;;;;;;15.29;100.00;98373.28;5073249;28;20119;-80
2023/09/19 06:13:09;;;;;;;1.75;0.20;;;;;;;15.39;100.00;98354.09;5068693;28;20028;-78
2023/09/19 06:15:37;;;;;;;0.30;0.00;;;;;;;15.46;100.00;98370.00;5077804;28;20028;-79
2023/09/19 06:18:05;;;;;;;0.00;0.00;;;;;;;15.56;100.00;98362.25;5057105;28;20036;-79
2023/09/19 06:20:33;;;;;;;0.00;0.00;;;;;;;15.58;100.00;98365.50;5056352;28;20077;-79
2023/09/19 06:23:04;;;;;;;1.27;0.10;;;;;;;15.67;100.00;98373.16;5087998;28;20043;-79
2023/09/19 06:25:33;;;;;;;0.82;0.10;;;;;;;15.71;100.00;98364.47;5087785;28;20028;-81
2023/09/19 06:28:05;;;;;;;1.30;0.15;;;;;;;15.73;100.00;98374.91;5072813;28;20487;-80
2023/09/19 06:30:34;;;;;;;0.77;0.10;;;;;;;15.74;100.00;98353.38;5073549;28;20113;-80
2023/09/19 06:33:03;;;;;;;0.25;0.10;;;;;;;15.83;100.00;98379.66;5070504;28;20036;-81
2023/09/19 06:35:35;;;;;;;0.20;0.00;;;;;;;15.90;100.00;98384.88;5083107;28;20028;-80
2023/09/19 06:38:05;;;;;;;0.75;0.10;;;;;;;15.91;100.00;98387.28;5085683;28;20392;-79
2023/09/19 06:40:35;;;;;;;0.30;0.10;;;;;;;15.94;100.00;98376.19;5072161;28;20043;-79
2023/09/19 06:43:05;;;;;;;1.55;0.20;;;;;;;15.99;100.00;98381.66;5076019;27;20055;-77
2023/09/19 06:45:32;;;;;;;1.05;0.10;;;;;;;15.98;100.00;98385.38;5084165;28;20032;-79
2023/09/19 06:48:02;;;;;;;0.57;0.10;;;;;;;16.02;100.00;98385.75;5105857;28;20131;-79
2023/09/19 06:50:32;;;;;;;0.10;0.10;;;;;;;16.04;100.00;98388.16;5088207;28;20054;-81
2023/09/19 06:53:02;;;;;;;1.95;0.32;;;;;;;16.10;100.00;98389.91;5098487;28;20119;-80
2023/09/19 06:55:30;;;;;;;1.75;0.10;;;;;;;16.11;100.00;98407.50;5070349;28;20180;-80
2023/09/19 06:57:59;;;;;;;0.95;0.10;;;;;;;16.14;100.00;98392.91;5071443;27;20063;-82
2023/09/19 07:00:28;;;;;;;0.73;0.10;;;;;;;16.15;100.00;98395.34;5101497;27;20361;-82
2023/09/19 07:03:12;;;;;;;1.40;0.25;;;;;;;16.21;100.00;98391.75;5089409;28;20112;-81
2023/09/19 07:05:42;;;;;;;2.08;0.10;;;;;;;16.20;100.00;98398.13;5089593;27;20039;-79
2023/09/19 07:08:12;;;;;;;1.27;0.10;;;;;;;16.23;100.00;98392.31;5102261;27;20024;-81
2023/09/19 07:10:40;;;;;;;0.63;0.10;;;;;;;16.21;100.00;98401.59;5110045;27;20040;-80
2023/09/19 07:13:10;;;;;;;1.48;0.10;;;;;;;16.22;100.00;98400.56;5086990;28;20507;-80
2023/09/19 07:15:41;;;;;;;4.38;0.10;;;;;;;16.23;100.00;98403.00;5085722;28;20034;-80
2023/09/19 07:18:10;;;;;;;0.73;0.20;;;;;;;16.23;100.00;98399.50;5098634;27;20551;-77
2023/09/19 07:20:38;;;;;;;0.82;0.05;;;;;;;16.22;100.00;98422.69;5098854;28;20580;-80
2023/09/19 07:23:06;;;;;;;1.13;0.10;;;;;;;16.26;100.00;98414.25;5072452;28;20047;-77
2023/09/19 07:25:34;;;;;;;1.63;0.30;;;;;;;16.24;100.00;98401.94;5068186;28;20036;-80
2023/09/19 07:28:03;;;;;;;0.43;0.10;;;;;;;16.28;100.00;98418.28;5084154;28;20126;-80
2023/09/19 07:30:30;;;;;;;0.47;0.10;;;;;;;16.26;100.00;98412.38;5083602;28;20035;-79
2023/09/19 07:33:01;;;;;;;0.55;0.03;;;;;;;16.30;100.00;98426.88;5069158;28;20194;-79
2023/09/19 07:35:31;;;;;;;0.75;0.10;;;;;;;16.30;100.00;98423.38;5100799;28;20074;-79
2023/09/19 07:38:01;;;;;;;8.48;0.20;;;;;;;16.30;100.00;98434.88;5104472;27;20034;-79
2023/09/19 07:40:30;;;;;;;15.85;0.38;;;;;;;16.30;100.00;98434.88;5083966;28;20058;-80
2023/09/19 07:43:01;;;;;;;0.55;0.10;;;;;;;16.29;100.00;98429.78;5103128;27;20123;-80
2023/09/19 07:45:30;;;;;;;1.63;0.17;;;;;;;16.30;100.00;98429.53;5083790;28;20133;-80
2023/09/19 07:48:01;;;;;;;0.30;0.10;;;;;;;16.33;100.00;98433.59;5099371;28;20379;-78
2023/09/19 07:50:29;;;;;;;0.63;0.10;;;;;;;16.33;100.00;98441.56;5077940;28;20056;-80
2023/09/19 07:52:56;;;;;;;0.65;0.17;;;;;;;16.36;100.00;98409.13;5098142;28;20472;-80
2023/09/19 07:55:25;;;;;;;0.80;0.00;;;;;;;16.36;100.00;98430.44;5087845;28;20114;-81
2023/09/19 07:57:54;;;;;;;0.22;0.00;;;;;;;16.37;100.00;98421.44;5096634;28;20047;-78
2023/09/19 08:00:21;;;;;;;1.48;0.10;;;;;;;16.35;100.00;98432.31;5082460;28;20661;-80
2023/09/19 08:02:52;;;;;;;1.73;0.10;;;;;;;16.38;100.00;98431.03;5121448;27;20100;-80
2023/09/19 08:05:20;;;;;;;0.32;0.00;;;;;;;16.39;100.00;98432.66;5088152;28;20063;-79
2023/09/19 08:07:48;;;;;;;3.22;0.10;;;;;;;16.36;100.00;98438.44;5094824;28;20046;-82
2023/09/19 08:10:19;;;;;;;0.10;0.10;;;;;;;16.36;100.00;98433.94;5093402;28;20032;-78
2023/09/19 08:12:48;;;;;;;1.08;0.10;;;;;;;16.34;100.00;98440.56;5081451;28;20069;-79
2023/09/19 08:15:22;;;;;;;2.60;0.10;;;;;;;16.34;100.00;98446.69;5069950;28;20042;-79
2023/09/19 08:17:50;;;;;;;0.15;0.10;;;;;;;16.31;100.00;98449.81;5084841;28;20044;-78
2023/09/19 08:20:18;;;;;;;1.08;0.57;;;;;;;16.32;100.00;98453.28;5105320;28;20067;-81
2023/09/19 08:22:52;;;;;;;1.00;0.50;;;;;;;16.33;100.00;98449.56;5101781;28;20511;-80
2023/09/19 08:25:23;;;;;;;0.52;0.10;;;;;;;16.30;100.00;98450.03;5086539;28;20047;-81
2023/09/19 08:27:52;;;;;;;0.93;0.20;;;;;;;16.28;100.00;98436.13;5093504;28;20055;-79
2023/09/19 08:30:24;;;;;;;0.60;0.10;;;;;;;16.27;100.00;98446.00;5104102;28;20032;-79
2023/09/19 08:33:04;;;;;;;0.40;0.05;;;;;;;16.26;100.00;98443.56;5107861;28;20523;-80
2023/09/19 08:35:33;;;;;;;0.57;0.15;;;;;;;16.24;100.00;98449.13;5065568;28;20036;-79
2023/09/19 08:38:03;;;;;;;0.30;0.10;;;;;;;16.21;100.00;98452.25;5087251;28;20495;-78
2023/09/19 08:40:39;;;;;;;0.10;0.00;;;;;;;16.24;100.00;98451.78;5089768;28;20523;-80
2023/09/19 08:43:09;;;;;;;;;;;;;;;16.17;100.00;98443.06;5082277;28;20019;-81
2023/09/19 08:45:40;;;;;;;0.95;0.08;;;;;;;16.21;100.00;98454.91;5092612;28;20011;-81
2023/09/19 08:48:25;;;;;;;0.20;0.00;;;;;;;16.28;100.00;98449.44;5087814;28;20043;-79
2023/09/19 08:51:08;;;;;;;0.30;0.10;;;;;;;16.27;100.00;98455.84;5083596;28;20028;-78
2023/09/19 08:54:04;;;;;;;0.45;0.05;;;;;;;16.26;100.00;98447.00;5070320;28;20033;-83
2023/09/19 08:56:33;;;;;;;0.00;0.00;;;;;;;16.27;100.00;98453.16;5109724;27;20031;-80
2023/09/19 08:59:12;;;;;;;0.80;0.00;;;;;;;16.29;100.00;98457.25;5089843;28;20028;-81
2023/09/19 09:01:42;;;;;;;0.00;0.00;;;;;;;16.31;100.00;98455.13;5089224;28;20122;-79
2023/09/19 09:04:13;;;;;;;0.10;0.00;;;;;;;16.33;100.00;98460.25;5090778;28;20063;-80
2023/09/19 09:06:50;;;;;;;0.03;0.00;;;;;;;16.35;100.00;98460.81;5073139;28;20138;-81
2023/09/19 09:09:22;;;;;;;0.75;0.10;;;;;;;16.35;100.00;98466.97;5088311;28;20119;-80
2023/09/19 09:12:04;;;;;;;0.93;0.10;;;;;;;16.40;100.00;98468.13;5099285;28;20491;-79
2023/09/19 09:14:35;;;;;;;0.57;0.10;;;;;;;16.35;100.00;98463.50;5072884;28;20659;-81
2023/09/19 09:17:08;;;;;;;0.20;0.10;;;;;;;16.40;100.00;98474.28;5079401;28;20028;-79
2023/09/19 09:19:43;;;;;;;0.30;0.10;;;;;;;16.42;100.00;98466.06;5096377;28;20032;-80
2023/09/19 09:22:39;;;;;;;0.98;0.20;;;;;;;16.40;100.00;98470.78;5083559;28;20035;-80
2023/09/19 09:25:13;;;;;;;0.30;0.10;;;;;;;16.42;100.00;98472.19;5096310;28;20088;-81
2023/09/19 09:28:06;;;;;;;0.70;0.17;;;;;;;16.46;100.00;98468.03;5077966;28;20035;-82
2023/09/19 09:30:58;;;;;;;;;;;;;;;;;;;;;
2023/09/19 09:33:43;;;;;;;0.82;0.10;;;;;;;16.49;100.00;98466.72;5088402;28;20109;-82
2023/09/19 09:36:12;;;;;;;0.10;0.10;;;;;;;16.50;100.00;98463.00;5103977;27;20364;-80
2023/09/19 09:38:55;;;;;;;0.22;0.10;;;;;;;16.57;100.00;98461.06;5103970;27;20378;-81
2023/09/19 09:41:41;;;;;;;0.10;0.10;;;;;;;16.54;100.00;98466.84;5090706;28;20032;-78
2023/09/19 09:44:23;;;;;;;1.63;0.00;;;;;;;16.54;100.00;98474.03;5097974;27;20395;-82
2023/09/19 09:49:39;;;;;;;0.00;0.00;;;;;;;16.53;100.00;98478.56;5093985;28;20035;-79
2023/09/19 09:52:16;;;;;;;0.40;0.00;;;;;;;16.51;100.00;98469.16;5096858;27;20039;-80
2023/09/19 09:55:05;;;;;;;1.15;0.10;;;;;;;16.52;100.00;98474.28;5097415;27;20483;-79
2023/09/19 09:57:34;;;;;;;1.67;0.05;;;;;;;16.51;100.00;98483.31;5077221;27;20027;-86
2023/09/19 10:02:41;;;;;;;0.40;0.00;;;;;;;16.51;100.00;98478.00;5094284;28;20063;-83
2023/09/19 10:05:30;;;;;;;0.20;0.00;;;;;;;16.59;100.00;98479.50;5074235;28;20548;-86
2023/09/19 10:08:19;;;;;;;2.40;0.10;;;;;;;16.65;100.00;98485.75;5083277;28;20093;-86
2023/09/19 10:11:12;;;;;;;;;;;;;;;;;;;;;
2023/09/19 10:13:47;;;;;;;0.63;0.00;;;;;;;16.66;100.00;98482.84;5092441;28;20090;-84
2023/09/19 10:16:18;;;;;;;0.52;0.13;;;;;;;16.69;100.00;98486.91;5090133;28;20122;-86
2023/09/19 10:18:58;;;;;;;;;;;;;;;16.65;100.00;98477.75;5086768;28;20039;-84
2023/09/19 10:21:29;;;;;;;2.50;0.13;;;;;;;16.69;100.00;98489.59;5097220;27;20371;-84
2023/09/19 10:24:17;;;;;;;0.52;0.00;;;;;;;16.67;100.00;98489.81;5095776;28;20074;-88
2023/09/19 10:26:51;;;;;;;0.40;0.10;;;;;;;16.77;100.00;98504.41;5082147;27;20031;-84
2023/09/19 10:29:26;;;;;;;1.27;0.10;;;;;;;16.69;100.00;98489.59;5091940;28;20040;-86
2023/09/19 10:32:08;;;;;;;0.73;0.10;;;;;;;16.81;100.00;98489.56;5094095;28;20494;-86
2023/09/19 10:34:41;;;;;;;3.20;0.30;;;;;;;16.85;100.00;98501.41;5072089;28;20044;-85
2023/09/19 10:37:14;;;;;;;1.08;0.20;;;;;;;16.91;100.00;98491.63;5091816;27;20032;-87
2023/09/19 10:39:51;;;;;;;1.13;0.10;;;;;;;16.95;100.00;98501.59;5076380;28;20027;-86
2023/09/19 10:42:41;;;;;;;0.55;0.13;;;;;;;16.93;100.00;98490.34;5097540;27;20035;-85
2023/09/19 10:45:20;;;;;;;0.43;0.10;;;;;;;16.93;100.00;98486.88;5078263;27;20472;-84
2023/09/19 10:48:02;;;;;;;1.25;0.28;;;;;;;16.91;100.00;98480.97;5108010;27;20042;-86
2023/09/19 10:51:04;;;;;;;0.07;0.00;;;;;;;16.96;100.00;98494.41;5075410;28;20047;-87
2023/09/19 10:53:55;;;;;;;0.90;0.10;;;;;;;16.93;100.00;98490.34;5077138;28;20365;-86
2023/09/19 10:56:32;;;;;;;0.30;0.10;;;;;;;16.95;100.00;98493.59;5091936;28;20434;-85
2023/09/19 10:59:34;;;;;;;0.80;0.10;;;;;;;16.95;100.00;98487.44;5091946;28;20096;-88
2023/09/19 11:02:23;;;;;;;0.85;0.10;;;;;;;16.94;100.00;98478.66;5076765;28;20426;-87
2023/09/19 11:05:11;;;;;;;1.30;0.10;;;;;;;16.96;100.00;98494.41;5073852;28;20032;-87
2023/09/19 11:08:03;;;;;;;1.45;0.22;;;;;;;16.94;100.00;98491.16;5102964;27;20039;-86
2023/09/19 11:10:51;;;;;;;;;;;;;;;16.82;100.00;98497.31;5071945;28;20042;-85
2023/09/19 11:13:37;;;;;;;0.30;0.10;;;;;;;16.87;100.00;98504.63;5068240;28;20002;-84
2023/09/19 11:16:23;;;;;;;8.20;0.10;;;;;;;16.87;100.00;98499.28;5089548;28;20051;-84
2023/09/19 11:19:09;;;;;;;1.40;0.10;;;;;;;16.82;100.00;98500.00;5061593;28;20042;-87
2023/09/19 11:22:12;;;;;;;0.20;0.10;;;;;;;16.83;100.00;98504.28;5085493;28;20036;-83
2023/09/19 11:25:34;;;;;;;1.80;0.10;;;;;;;16.84;100.00;98507.78;5074209;28;20093;-79
2023/09/19 11:28:39;;;;;;;0.43;0.10;;;;;;;16.88;100.00;98500.94;5097260;28;20081;-82
2023/09/19 11:31:55;;;;;;;2.45;0.10;;;;;;;16.99;100.00;98500.09;5078669;28;20043;-82
2023/09/19 11:34:39;;;;;;;1.35;0.25;;;;;;;17.04;100.00;98499.38;5065927;28;20093;-80
2023/09/19 11:37:13;;;;;;;0.68;0.20;;;;;;;17.06;100.00;98499.13;5099057;28;20032;-81
2023/09/19 11:40:28;;;;;;;0.52;0.20;;;;;;;17.06;100.00;98499.97;5072430;28;20036;-78
2023/09/19 11:42:57;;;;;;;2.30;0.40;;;;;;;17.07;100.00;98490.09;5098483;28;20077;-82
2023/09/19 11:45:59;;;;;;;1.48;0.20;;;;;;;17.07;100.00;98495.44;5055191;28;20031;-82
2023/09/19 11:48:29;;;;;;;1.77;0.30;;;;;;;17.07;100.00;98493.56;5076972;27;20120;-81
2023/09/19 11:50:59;;;;;;;4.53;0.40;;;;;;;17.05;100.00;98498.34;5090893;28;20032;-81
2023/09/19 11:53:33;;;;;;;4.85;0.63;;;;;;;17.05;100.00;98500.19;5088733;27;20539;-78
2023/09/19 11:56:01;;;;;;;6.90;0.63;;;;;;;16.97;100.00;98504.88;5112814;27;20031;-79
2023/09/19 11:58:33;;;;;;;4.25;0.60;;;;;;;16.98;100.00;98498.47;5102093;28;20122;-79
2023/09/19 12:01:07;;;;;;;1.83;0.50;;;;;;;16.98;100.00;98505.66;5089662;28;20522;-80
2023/09/19 12:03:41;;;;;;;3.53;0.47;;;;;;;16.98;100.00;98493.13;5105020;28;20117;-79